Terminal Aerodrome Forecast
Issued by NWS Glasgow, MT

Home | Current Version | Previous Version | Text Only | Print | Product List | Glossary On
Versions: 1 2 3 4 5 6 7 8 9 10 11 12 13 14 15
537
FTUS45 KGGW 111726
TAFGGW
TAF
KGGW 111726Z 1118/1218 06007KT P6SM VCSH FEW010 BKN025 OVC060
     FM120100 04006KT P6SM FEW010 BKN030
     FM120900 07007KT P6SM BKN010
     FM121500 10012KT P6SM BKN010=

USA.gov is the U.S. government's official web portal to all federal, state and local government web resources and services.